Aérodrome :
LOGIN :

S'inscrire | Disclaimer

   EN    FR    IT 

 










Légende :    VFR   VFR Marginal   IFR   IFR Intensif   IFR Très Intensif
Visi : 
Plafond : 
>= 8 km
>= 3000ft
5 à 8 km
1000 à 3000 ft
1500m à 5 km
500 à 1000 ft
800 à 1500m
200 à 500 ft
< 800m
< 200 ft
Symboles :   Orages  Brouillard  Fortes neiges  Fortes précipitations  Vent > 20 kt
SIGMETs :   Divers  Orages  Givrage  Turbulence  Onde Orograph.  Cendres Volcan.







- Altitude de l'aérodrome : 776 ft
- Code IATA : RMS


ETAR - Ramstein Air Base

DERNIER METAR :
  • 251358Z 00000KT 9999 OVC170 09/M02 A2980 RMK AO2A SLP102 T00871018 $

METARs EXPIRÉS :
  • 251258Z 27012KT 9999 OVC060 08/M01 A2981 RMK AO2A SLP107 T00831012 $
  • 251159Z 29005KT 9999 FEW015 BKN041 08/00 A2981 RMK AO2A $

TAF AMD TAF ETAR
Valide du 25 à 13h jusqu'au 26 à 16h UTC


251311Z 2513/2616 27009KT 9000 -SHRA OVC035 610409 611301 QNH2976INS
TEMPO 2513/2517 27010G20KT
BECMG 2521/2522 04012KT 9000 -SHRA OVC015 610209 611107 QNH2974INS
TEMPO 2600/2602 8000 -RASN
BECMG 2606/2607 02009KT 9999 NSW BKN025 610409 611301 QNH2981INS TX12/2515Z TN00/2603Z
Pas de NOTAMs connus pour ce terrain.



MET'MAP, la Météo Aéronautique d'un coup d'oeil ! - Copyright ORBIFLY Décembre 2007 - Disclaimer

ORBIFLY MET'MAP TEAM :

Programmation & Développement : Alexandra Zaïnal
Conception & Développement : Baudouin d'Aumeries
Co-Programmation & Développement : Marc-Olivier Méhu
Soutien technique & logistique : Manuel Goepfert

Contact : metmap@orbifly.com




SOURCES & CREDITS :

   NOAA